Time;durP1;ratioP1;P1;durP2;ratioP2;P2;SDS_P1;SDS_P2;PMS_P1;PMS_P2;Temp;Humidity;BMP_temperature;BMP_pressure;BME280_temperature;BME280_humidity;BME280_pressure;Samples;Min_cycle;Max_cycle;Signal;HPM_P1;HPM_P2
2022/10/24 00:00:13;;;;;;;0.95;0.50;;;;;;;27.39;23.00;100232.78;4972424;28;20038;-84
2022/10/24 00:02:38;;;;;;;0.82;0.50;;;;;;;27.68;23.11;100278.31;4982261;28;20018;-84
2022/10/24 00:05:04;;;;;;;1.23;0.52;;;;;;;27.66;22.98;100278.59;4970977;28;20436;-84
2022/10/24 00:07:30;;;;;;;0.30;0.30;;;;;;;27.68;22.99;100283.78;4981963;28;20161;-84
2022/10/24 00:09:56;;;;;;;0.43;0.38;;;;;;;27.72;22.93;100284.81;4971689;28;20039;-84
2022/10/24 00:12:21;;;;;;;0.93;0.50;;;;;;;27.75;22.86;100283.38;4973263;28;20033;-84
2022/10/24 00:14:47;;;;;;;1.05;0.50;;;;;;;27.71;22.87;100273.00;4982462;28;20019;-84
2022/10/24 00:17:12;;;;;;;0.57;0.40;;;;;;;27.72;22.73;100279.34;4954334;28;20474;-84
2022/10/24 00:19:41;;;;;;;1.02;0.40;;;;;;;27.79;22.66;100284.41;4978682;28;20104;-84
2022/10/24 00:22:07;;;;;;;0.45;0.35;;;;;;;27.79;22.78;100287.97;4967790;28;20033;-84
2022/10/24 00:24:32;;;;;;;0.52;0.52;;;;;;;27.83;22.84;100297.22;4977552;28;20026;-84
2022/10/24 00:26:58;;;;;;;0.40;0.40;;;;;;;27.76;22.82;100296.81;4979324;28;20121;-83
2022/10/24 00:29:23;;;;;;;0.40;0.40;;;;;;;27.80;22.79;100299.75;4948909;28;20035;-84
2022/10/24 00:31:49;;;;;;;0.60;0.57;;;;;;;27.83;22.83;100296.41;4969019;28;20442;-84
2022/10/24 00:34:15;;;;;;;0.60;0.40;;;;;;;27.84;22.62;100309.03;4971536;28;20121;-84
2022/10/24 00:36:41;;;;;;;0.40;0.40;;;;;;;27.86;22.56;100309.53;4977781;28;20113;-84
2022/10/24 00:39:06;;;;;;;0.30;0.30;;;;;;;27.89;22.50;100300.69;4976700;28;20039;-84
2022/10/24 00:41:35;;;;;;;1.63;0.60;;;;;;;27.84;22.62;100309.03;4975556;28;20097;-84
2022/10/24 00:44:32;;;;;;;0.68;0.50;;;;;;;27.90;22.66;100308.59;4959729;28;20034;-84
2022/10/24 00:47:04;;;;;;;0.75;0.40;;;;;;;27.94;22.77;100313.50;4943178;28;20049;-84
2022/10/24 00:49:34;;;;;;;1.88;0.47;;;;;;;27.95;22.24;100320.66;4979362;28;20034;-84
2022/10/24 00:52:02;;;;;;;0.50;0.40;;;;;;;27.94;22.53;100322.59;4970792;28;20042;-84
2022/10/24 00:54:27;;;;;;;1.08;0.50;;;;;;;27.96;22.47;100305.78;4959815;28;20022;-84
2022/10/24 00:57:07;;;;;;;0.68;0.60;;;;;;;27.96;22.54;100314.00;4961116;28;20038;-84
2022/10/24 00:59:36;;;;;;;0.70;0.55;;;;;;;27.99;22.47;100316.97;4961664;28;20027;-84
2022/10/24 01:02:01;;;;;;;0.65;0.50;;;;;;;27.99;22.40;100321.66;4970193;28;20070;-84
2022/10/24 01:04:27;;;;;;;0.60;0.60;;;;;;;28.03;22.15;100322.69;4946429;28;20071;-84
2022/10/24 01:07:23;;;;;;;0.50;0.50;;;;;;;28.01;22.29;100320.25;4964852;28;20138;-84
2022/10/24 01:10:04;;;;;;;0.82;0.40;;;;;;;28.05;22.21;100320.44;4956407;28;20035;-84
2022/10/24 01:12:53;;;;;;;1.92;0.50;;;;;;;28.08;22.00;100319.81;4968611;28;20062;-84
2022/10/24 01:15:57;;;;;;;0.95;0.60;;;;;;;28.11;21.99;100324.69;4972469;28;20141;-84
2022/10/24 01:18:40;;;;;;;0.95;0.52;;;;;;;28.13;22.11;100330.72;4968171;28;20074;-84
2022/10/24 01:21:07;;;;;;;0.50;0.50;;;;;;;28.13;22.18;100327.13;4980000;28;20027;-84
2022/10/24 01:23:57;;;;;;;0.95;0.60;;;;;;;28.16;22.11;100332.81;4974381;28;20041;-84
2022/10/24 01:26:30;;;;;;;0.45;0.45;;;;;;;28.14;22.10;100335.06;4973837;28;20031;-84
2022/10/24 01:29:24;;;;;;;1.30;0.50;;;;;;;28.14;21.89;100331.50;4957380;28;20487;-84
2022/10/24 01:31:58;;;;;;;0.50;0.50;;;;;;;28.18;22.10;100338.84;4955310;28;20522;-84
2022/10/24 01:34:42;;;;;;;0.60;0.52;;;;;;;28.25;21.76;100336.50;4964501;28;20528;-84
2022/10/24 01:37:12;;;;;;;0.63;0.50;;;;;;;28.28;21.76;100338.59;4970901;28;20436;-84
2022/10/24 01:39:41;;;;;;;1.42;0.40;;;;;;;28.19;21.78;100323.97;4947905;28;20121;-84
2022/10/24 01:42:06;;;;;;;3.30;0.52;;;;;;;28.28;21.82;100344.09;4947427;28;20053;-84
2022/10/24 01:44:47;;;;;;;1.15;0.60;;;;;;;28.21;21.79;100329.97;4961571;28;20095;-84
2022/10/24 01:47:16;;;;;;;1.80;0.68;;;;;;;28.27;21.79;100342.47;4949525;28;20031;-84
2022/10/24 01:49:43;;;;;;;1.52;0.50;;;;;;;28.25;21.77;100344.72;4977702;28;20089;-84
2022/10/24 01:52:10;;;;;;;0.52;0.50;;;;;;;28.29;21.68;100348.47;4957039;28;20587;-84
2022/10/24 01:54:36;;;;;;;1.08;0.60;;;;;;;28.28;21.54;100340.53;4969597;28;20058;-84
2022/10/24 01:57:04;;;;;;;0.57;0.52;;;;;;;28.26;21.70;100340.03;4959336;28;20027;-84
2022/10/24 01:59:29;;;;;;;1.67;0.60;;;;;;;28.29;21.69;100348.47;4982798;28;20344;-84
2022/10/24 02:02:13;;;;;;;1.10;0.60;;;;;;;28.33;21.61;100347.88;4975653;28;20113;-84
2022/10/24 02:05:04;;;;;;;0.68;0.50;;;;;;;28.33;21.56;100345.13;4968085;28;20433;-84
2022/10/24 02:07:30;;;;;;;1.08;0.70;;;;;;;28.35;21.73;100357.41;4988662;28;20534;-84
2022/10/24 02:10:02;;;;;;;2.55;0.75;;;;;;;28.34;21.35;100365.97;4975101;28;20032;-84
2022/10/24 02:12:27;;;;;;;1.45;0.70;;;;;;;28.38;21.46;100367.00;4962881;28;20495;-84
2022/10/24 02:14:56;;;;;;;2.15;0.45;;;;;;;28.40;21.66;100364.75;4982471;28;20145;-84
2022/10/24 02:17:22;;;;;;;0.93;0.50;;;;;;;28.43;21.38;100366.88;4958255;28;20596;-84
2022/10/24 02:19:48;;;;;;;0.77;0.70;;;;;;;28.39;21.27;100365.84;4976492;28;20046;-84
2022/10/24 02:22:27;;;;;;;0.70;0.50;;;;;;;28.39;21.72;100366.69;4963321;28;20047;-84
2022/10/24 02:25:01;;;;;;;2.65;0.80;;;;;;;28.43;21.57;100364.13;4951298;28;20050;-84
2022/10/24 02:27:37;;;;;;;1.27;0.75;;;;;;;28.45;21.37;100364.63;4968320;28;20114;-84
2022/10/24 02:30:08;;;;;;;0.95;0.65;;;;;;;28.47;21.51;100365.13;4960274;28;20113;-84
2022/10/24 02:32:44;;;;;;;0.75;0.52;;;;;;;28.47;21.34;100365.13;4956597;28;20042;-84
2022/10/24 02:35:11;;;;;;;1.17;0.80;;;;;;;28.45;21.35;100370.13;4972352;28;20023;-84
2022/10/24 02:37:48;;;;;;;0.90;0.63;;;;;;;28.49;21.30;100365.63;4957293;28;20022;-84
2022/10/24 02:40:14;;;;;;;0.82;0.50;;;;;;;28.51;21.35;100374.41;4931485;28;20027;-84
2022/10/24 02:42:40;;;;;;;1.70;0.65;;;;;;;28.51;21.23;100382.66;4976078;28;20069;-84
2022/10/24 02:45:08;;;;;;;2.08;0.70;;;;;;;28.56;21.06;100384.50;4952775;28;20027;-84
2022/10/24 02:47:34;;;;;;;1.20;0.73;;;;;;;28.57;21.41;100383.38;4956596;28;20514;-84
2022/10/24 02:49:59;;;;;;;0.95;0.50;;;;;;;28.57;21.08;100386.94;4975941;28;20026;-84
2022/10/24 02:52:25;;;;;;;0.95;0.50;;;;;;;28.59;21.16;100387.44;4971307;28;20696;-84
2022/10/24 02:54:51;;;;;;;1.70;0.70;;;;;;;28.59;21.31;100390.19;4966544;28;20110;-84
2022/10/24 02:57:16;;;;;;;1.52;0.82;;;;;;;28.61;21.05;100393.47;4951701;28;20118;-84
2022/10/24 02:59:42;;;;;;;1.25;0.60;;;;;;;28.65;21.08;100396.41;4974533;28;20391;-84
2022/10/24 03:02:08;;;;;;;1.15;0.50;;;;;;;28.64;21.05;100398.31;4976233;28;20031;-84
2022/10/24 03:04:33;;;;;;;1.48;0.60;;;;;;;28.46;21.12;100380.03;4949063;28;20053;-84
2022/10/24 03:07:00;;;;;;;1.05;0.55;;;;;;;28.66;20.84;100411.75;4972937;28;20117;-84
2022/10/24 03:09:26;;;;;;;1.40;0.80;;;;;;;28.60;21.03;100397.31;4971301;28;20097;-84
2022/10/24 03:11:51;;;;;;;1.20;0.73;;;;;;;28.65;20.87;100399.97;4972014;28;20475;-84
2022/10/24 03:14:17;;;;;;;1.52;0.80;;;;;;;28.69;21.08;100404.84;4980240;28;20061;-84
2022/10/24 03:16:45;;;;;;;1.10;0.55;;;;;;;28.70;21.03;100401.78;4968427;28;20098;-84
2022/10/24 03:19:11;;;;;;;0.93;0.65;;;;;;;28.71;20.94;100397.91;4975105;28;20610;-84
2022/10/24 03:21:36;;;;;;;1.65;0.60;;;;;;;28.75;20.89;100396.19;4962024;28;20410;-84
2022/10/24 03:24:02;;;;;;;0.65;0.55;;;;;;;28.75;20.98;100398.09;4984299;28;20113;-84
2022/10/24 03:26:28;;;;;;;2.55;0.77;;;;;;;28.76;20.71;100410.72;4983613;28;20498;-84
2022/10/24 03:28:53;;;;;;;2.10;0.52;;;;;;;28.72;20.90;100412.44;4969583;28;20070;-84
2022/10/24 03:31:19;;;;;;;1.05;0.70;;;;;;;28.64;21.00;100409.31;4981096;28;20037;-84
2022/10/24 03:33:45;;;;;;;2.05;0.73;;;;;;;28.63;20.78;100402.22;4969681;28;20049;-84
2022/10/24 03:36:10;;;;;;;1.10;0.70;;;;;;;28.61;20.86;100398.97;4976472;28;20054;-84
2022/10/24 03:38:36;;;;;;;1.55;0.40;;;;;;;28.54;20.92;100404.00;4972565;28;20423;-84
2022/10/24 03:41:01;;;;;;;1.67;0.55;;;;;;;28.50;20.93;100419.50;4965914;28;20121;-84
2022/10/24 03:43:27;;;;;;;2.65;0.82;;;;;;;28.44;20.94;100410.56;4956872;28;20073;-84
2022/10/24 03:45:53;;;;;;;0.90;0.60;;;;;;;28.44;21.03;100409.72;4973362;28;20059;-84
2022/10/24 03:48:18;;;;;;;0.77;0.50;;;;;;;28.41;21.20;100415.84;4973076;28;20038;-84
2022/10/24 03:50:44;;;;;;;0.98;0.50;;;;;;;28.45;21.00;100427.84;4961446;28;20583;-84
2022/10/24 03:53:09;;;;;;;1.33;0.50;;;;;;;28.39;21.14;100426.31;4971845;28;20106;-84
2022/10/24 03:55:35;;;;;;;1.48;0.90;;;;;;;28.35;21.39;100422.56;4983087;28;20019;-84
2022/10/24 03:58:01;;;;;;;1.27;0.45;;;;;;;28.31;21.32;100422.38;4968191;28;20031;-84
2022/10/24 04:00:27;;;;;;;0.57;0.50;;;;;;;28.31;21.56;100416.06;4984664;28;20365;-84
2022/10/24 04:02:53;;;;;;;1.25;0.70;;;;;;;28.27;21.35;100422.16;4976404;28;20104;-84
2022/10/24 04:05:19;;;;;;;3.20;0.80;;;;;;;28.22;21.47;100424.22;4969147;28;20054;-84
2022/10/24 04:07:45;;;;;;;0.80;0.60;;;;;;;28.21;21.17;100425.31;4981314;28;20090;-84
2022/10/24 04:10:10;;;;;;;1.08;0.70;;;;;;;28.20;21.21;100429.19;4965811;28;20034;-84
2022/10/24 04:12:36;;;;;;;1.02;0.50;;;;;;;28.17;21.47;100438.06;4953958;28;20554;-84
2022/10/24 04:15:02;;;;;;;1.73;0.70;;;;;;;28.17;21.37;100443.56;4973248;28;20042;-84
2022/10/24 04:17:28;;;;;;;1.23;0.63;;;;;;;28.15;21.21;100443.00;4973148;28;20026;-84
2022/10/24 04:19:53;;;;;;;1.27;0.45;;;;;;;28.10;21.39;100438.44;4976358;28;20070;-84
2022/10/24 04:22:19;;;;;;;3.40;0.60;;;;;;;28.07;21.40;100437.13;4974583;28;20383;-84
2022/10/24 04:24:44;;;;;;;1.17;0.70;;;;;;;28.05;21.45;100441.31;4983171;28;20491;-84
2022/10/24 04:27:10;;;;;;;0.80;0.60;;;;;;;28.03;21.48;100438.03;4970948;28;20047;-84
2022/10/24 04:29:36;;;;;;;1.38;0.50;;;;;;;28.00;21.69;100433.16;4969973;28;20031;-84
2022/10/24 04:32:01;;;;;;;1.05;0.60;;;;;;;27.97;21.70;100444.75;4986155;28;20026;-84
2022/10/24 04:34:27;;;;;;;1.35;0.50;;;;;;;27.93;21.76;100438.25;4966650;28;20026;-84
2022/10/24 04:36:53;;;;;;;1.20;0.57;;;;;;;27.93;21.76;100444.53;4975746;28;20031;-84
2022/10/24 04:39:18;;;;;;;1.20;0.70;;;;;;;27.91;21.66;100452.25;4963881;28;20481;-84
2022/10/24 04:41:44;;;;;;;1.23;0.77;;;;;;;27.91;21.65;100441.25;4974954;28;20023;-84
2022/10/24 04:44:10;;;;;;;1.00;0.70;;;;;;;27.88;21.78;100448.16;4978121;28;20084;-84
2022/10/24 04:46:35;;;;;;;2.58;0.70;;;;;;;27.84;21.75;100447.13;4965223;28;20356;-84
2022/10/24 04:49:01;;;;;;;2.38;0.63;;;;;;;27.77;21.56;100446.72;4975846;28;20030;-84
2022/10/24 04:51:27;;;;;;;1.88;0.82;;;;;;;27.85;21.47;100459.72;4971149;28;20033;-84
2022/10/24 04:53:52;;;;;;;0.80;0.50;;;;;;;27.84;21.62;100457.31;4934859;28;20066;-84
2022/10/24 04:56:21;;;;;;;0.70;0.57;;;;;;;27.85;21.59;100459.72;4971021;28;20058;-84
2022/10/24 04:58:47;;;;;;;1.13;0.60;;;;;;;27.81;21.67;100457.91;4966790;28;20027;-84
2022/10/24 05:01:12;;;;;;;1.40;0.68;;;;;;;27.82;21.68;100465.84;4974373;28;20084;-84
2022/10/24 05:03:38;;;;;;;1.13;0.50;;;;;;;27.81;21.64;100469.69;4965642;28;20105;-84
2022/10/24 05:06:04;;;;;;;3.50;0.85;;;;;;;27.81;21.89;100464.22;4956098;28;20466;-84
2022/10/24 05:08:29;;;;;;;1.75;0.73;;;;;;;27.80;21.96;100464.50;4983601;28;20034;-84
2022/10/24 05:10:55;;;;;;;1.00;0.55;;;;;;;27.78;21.79;100470.31;4970302;28;20480;-84
2022/10/24 05:13:20;;;;;;;1.60;0.80;;;;;;;27.80;21.87;100462.56;4984433;28;20033;-84
2022/10/24 05:15:46;;;;;;;3.28;0.70;;;;;;;27.80;21.72;100470.81;4966750;28;20135;-84
2022/10/24 05:18:14;;;;;;;2.08;0.63;;;;;;;27.80;21.76;100468.06;4970163;28;20053;-84
2022/10/24 05:20:40;;;;;;;2.28;0.80;;;;;;;27.81;21.86;100480.69;4980693;28;20022;-84
2022/10/24 05:23:05;;;;;;;1.08;0.68;;;;;;;27.79;21.83;100482.91;4969257;28;20109;-84
2022/10/24 05:25:31;;;;;;;0.52;0.52;;;;;;;27.75;21.81;100481.88;4987777;28;20049;-84
2022/10/24 05:27:57;;;;;;;1.95;0.60;;;;;;;27.82;21.78;100490.56;4970017;28;20035;-84
2022/10/24 05:30:22;;;;;;;1.40;0.70;;;;;;;27.74;21.80;100491.25;4978220;28;20427;-84
2022/10/24 05:32:48;;;;;;;1.10;0.68;;;;;;;27.72;21.77;100490.75;4974072;28;20023;-84
2022/10/24 05:35:14;;;;;;;1.35;0.60;;;;;;;27.72;21.89;100488.00;4975345;28;20026;-84
2022/10/24 05:37:39;;;;;;;1.02;0.82;;;;;;;27.72;21.72;100483.31;4983955;28;20116;-84
2022/10/24 05:40:09;;;;;;;0.45;0.43;;;;;;;27.73;21.82;100487.69;4970959;28;20033;-84
2022/10/24 05:42:35;;;;;;;0.60;0.50;;;;;;;27.75;21.70;100495.59;4977548;28;20022;-84
2022/10/24 05:45:01;;;;;;;1.25;0.60;;;;;;;27.73;21.81;100486.84;4979573;28;20176;-84
2022/10/24 05:47:26;;;;;;;2.33;0.52;;;;;;;27.76;21.90;100494.50;4975364;28;20496;-84
2022/10/24 05:49:52;;;;;;;1.08;0.52;;;;;;;27.74;21.68;100496.75;4972431;28;20143;-84
2022/10/24 05:52:17;;;;;;;1.48;0.60;;;;;;;27.74;21.83;100491.25;4956081;28;20030;-84
2022/10/24 05:54:43;;;;;;;1.40;0.70;;;;;;;27.68;21.78;100492.44;4974139;28;20039;-84
2022/10/24 05:57:08;;;;;;;1.70;0.60;;;;;;;27.69;21.72;100500.38;4974461;28;20028;-84
2022/10/24 05:59:34;;;;;;;0.85;0.60;;;;;;;27.67;21.66;100504.56;4974493;28;20031;-84
2022/10/24 06:02:00;;;;;;;1.65;0.93;;;;;;;27.66;21.80;100491.94;4985587;28;20053;-84
2022/10/24 06:04:25;;;;;;;2.13;0.68;;;;;;;27.65;21.90;100496.63;4973746;28;20523;-84
2022/10/24 06:06:51;;;;;;;2.78;0.80;;;;;;;27.68;21.85;100496.00;4971797;28;20035;-84
2022/10/24 06:09:17;;;;;;;2.70;0.60;;;;;;;27.67;21.76;100499.06;4979467;28;20031;-84
2022/10/24 06:11:42;;;;;;;1.05;0.68;;;;;;;27.65;21.82;100491.13;4977739;28;20031;-84
2022/10/24 06:14:08;;;;;;;1.17;0.70;;;;;;;27.56;21.91;100481.91;4983034;28;20121;-84
2022/10/24 06:16:34;;;;;;;2.00;1.05;;;;;;;27.63;21.87;100496.09;4953636;28;20516;-84
2022/10/24 06:18:59;;;;;;;1.25;0.60;;;;;;;27.62;21.80;100512.88;4962592;28;20039;-84
2022/10/24 06:21:25;;;;;;;0.88;0.70;;;;;;;27.63;21.87;100511.72;4967609;28;20146;-84
2022/10/24 06:23:51;;;;;;;1.42;0.93;;;;;;;27.61;21.94;100513.97;4980825;28;20106;-84
2022/10/24 06:26:17;;;;;;;1.10;0.80;;;;;;;27.61;21.99;100503.00;4990824;28;20435;-84
2022/10/24 06:28:42;;;;;;;1.50;0.73;;;;;;;27.64;21.80;100513.38;4966654;28;20039;-84
2022/10/24 06:31:08;;;;;;;1.52;0.60;;;;;;;27.57;21.73;100507.47;4977965;28;20054;-84
2022/10/24 06:33:34;;;;;;;3.25;0.70;;;;;;;27.62;21.94;100521.09;4980516;28;20050;-84
2022/10/24 06:36:00;;;;;;;1.10;0.80;;;;;;;27.62;21.79;100521.91;4972531;28;20031;-84
2022/10/24 06:38:29;;;;;;;0.95;0.70;;;;;;;27.62;21.88;100521.09;4982313;28;20062;-84
2022/10/24 06:40:54;;;;;;;1.25;0.70;;;;;;;27.37;21.74;100481.13;4969993;28;20109;-84
2022/10/24 06:43:20;;;;;;;2.28;0.80;;;;;;;27.53;22.09;100520.97;4956996;28;20113;-84
2022/10/24 06:45:45;;;;;;;1.60;0.80;;;;;;;27.50;21.94;100519.63;4955223;28;20022;-84
2022/10/24 06:48:11;;;;;;;1.10;0.60;;;;;;;27.53;21.88;100518.22;4971633;28;20495;-84
2022/10/24 06:50:39;;;;;;;1.45;0.68;;;;;;;27.50;21.94;100516.06;4975521;28;20057;-84
2022/10/24 06:53:05;;;;;;;1.90;0.60;;;;;;;27.49;22.09;100518.00;4941795;28;20462;-84
2022/10/24 06:55:31;;;;;;;0.95;0.70;;;;;;;27.50;21.86;100527.84;4965931;28;20037;-84
2022/10/24 06:57:56;;;;;;;2.45;0.80;;;;;;;27.49;21.96;100537.22;4971271;28;20039;-84
2022/10/24 07:00:22;;;;;;;0.68;0.60;;;;;;;27.45;22.10;100527.94;4958415;28;20118;-84
2022/10/24 07:02:48;;;;;;;0.82;0.65;;;;;;;27.48;22.02;100538.31;4974357;28;20236;-84
2022/10/24 07:05:14;;;;;;;1.92;0.80;;;;;;;27.48;22.06;100543.81;4966201;28;20057;-84
2022/10/24 07:07:40;;;;;;;1.05;0.68;;;;;;;27.45;22.20;100547.13;4989757;28;20023;-84
2022/10/24 07:10:06;;;;;;;1.67;0.73;;;;;;;27.37;22.18;100528.59;4969350;28;20038;-84
2022/10/24 07:12:34;;;;;;;1.30;0.82;;;;;;;27.46;22.07;100537.81;4974898;28;20352;-84
2022/10/24 07:15:01;;;;;;;1.33;0.77;;;;;;;27.42;21.99;100539.50;4984296;28;20066;-84
2022/10/24 07:17:28;;;;;;;3.05;0.90;;;;;;;27.43;22.08;100552.13;4972342;28;20030;-84
2022/10/24 07:19:57;;;;;;;1.00;0.70;;;;;;;27.42;22.40;100544.19;4977758;28;20046;-84
2022/10/24 07:22:23;;;;;;;0.82;0.70;;;;;;;27.44;22.20;100556.50;4968948;28;20061;-84
2022/10/24 07:24:55;;;;;;;1.42;0.93;;;;;;;27.42;22.14;100549.66;4982426;28;20074;-84
2022/10/24 07:27:21;;;;;;;1.55;0.70;;;;;;;27.43;22.08;100554.06;4979881;28;20041;-84
2022/10/24 07:29:46;;;;;;;2.53;0.60;;;;;;;27.43;22.06;100554.88;4954624;28;20074;-84
2022/10/24 07:32:12;;;;;;;2.00;0.68;;;;;;;27.38;22.26;100548.63;4970540;28;20761;-84
2022/10/24 07:34:38;;;;;;;1.63;0.73;;;;;;;27.38;22.11;100554.94;4972277;28;20553;-84
2022/10/24 07:37:04;;;;;;;1.38;0.80;;;;;;;27.37;22.35;100556.03;4954515;28;20491;-84
2022/10/24 07:39:30;;;;;;;0.90;0.70;;;;;;;27.35;22.31;100561.00;4971767;28;20081;-84
2022/10/24 07:41:55;;;;;;;0.98;0.77;;;;;;;27.34;22.21;100557.47;4943337;28;20031;-84
2022/10/24 07:44:21;;;;;;;1.50;0.80;;;;;;;27.39;22.25;100556.59;4969674;28;20113;-84
2022/10/24 07:46:46;;;;;;;3.13;0.50;;;;;;;27.36;22.32;100557.16;4967100;28;20055;-84
2022/10/24 07:49:12;;;;;;;1.95;0.75;;;;;;;27.36;22.32;100557.16;4976238;28;20074;-84
2022/10/24 07:51:39;;;;;;;0.95;0.65;;;;;;;27.37;22.31;100558.78;4970762;28;20030;-83
2022/10/24 07:54:04;;;;;;;0.80;0.60;;;;;;;27.35;22.31;100558.25;4955694;28;20026;-83
2022/10/24 07:56:33;;;;;;;0.90;0.75;;;;;;;27.30;22.41;100564.66;4974761;28;20033;-84
2022/10/24 07:59:00;;;;;;;1.55;0.70;;;;;;;27.31;22.43;100579.19;4979604;28;20023;-84
2022/10/24 08:01:26;;;;;;;1.25;0.80;;;;;;;27.27;22.53;100573.44;4984609;28;20022;-84
2022/10/24 08:03:51;;;;;;;0.70;0.60;;;;;;;27.23;22.56;100568.84;4967592;28;20030;-83
2022/10/24 08:06:19;;;;;;;0.80;0.52;;;;;;;27.01;22.58;100545.53;4971817;28;20155;-84
2022/10/24 08:08:45;;;;;;;0.68;0.60;;;;;;;27.25;22.53;100577.59;4949918;28;20047;-83
2022/10/24 08:11:15;;;;;;;1.17;0.55;;;;;;;27.24;22.63;100574.03;4965267;28;20392;-84
2022/10/24 08:13:41;;;;;;;0.90;0.80;;;;;;;27.24;22.55;100575.97;4986296;28;20057;-84
2022/10/24 08:16:08;;;;;;;0.70;0.70;;;;;;;27.24;22.63;100582.25;4967002;28;20520;-83
2022/10/24 08:18:33;;;;;;;1.30;0.63;;;;;;;27.22;22.74;100591.91;4969527;28;20113;-84
2022/10/24 08:21:00;;;;;;;0.63;0.52;;;;;;;27.21;22.62;100584.78;4969765;28;20122;-84
2022/10/24 08:23:26;;;;;;;0.60;0.50;;;;;;;27.15;22.75;100578.56;4960102;28;20069;-84
2022/10/24 08:25:52;;;;;;;1.75;0.70;;;;;;;27.16;22.81;100586.50;4976016;28;20038;-84
2022/10/24 08:28:17;;;;;;;0.93;0.60;;;;;;;27.11;22.93;100586.56;4953861;28;20101;-84
2022/10/24 08:30:43;;;;;;;0.65;0.60;;;;;;;27.08;22.84;100587.13;4971246;28;20105;-84
2022/10/24 08:33:08;;;;;;;1.20;0.70;;;;;;;27.09;22.97;100593.44;4963324;28;20477;-84
2022/10/24 08:35:34;;;;;;;0.80;0.55;;;;;;;27.08;22.95;100592.63;4976122;28;20540;-84
2022/10/24 08:38:00;;;;;;;0.60;0.60;;;;;;;27.05;23.05;100590.47;4977271;28;20041;-84
2022/10/24 08:40:26;;;;;;;0.73;0.65;;;;;;;27.05;23.04;100590.47;4970418;28;20165;-84
2022/10/24 08:42:52;;;;;;;0.63;0.52;;;;;;;27.03;23.15;100595.44;4940972;28;20128;-84
2022/10/24 08:45:46;;;;;;;1.42;0.70;;;;;;;27.01;23.16;100592.16;4970496;28;20061;-84
2022/10/24 08:48:12;;;;;;;;;;;;;;;27.04;23.15;100588.81;4941944;28;20073;-84
2022/10/24 08:50:40;;;;;;;1.15;0.60;;;;;;;27.02;23.41;100607.50;4975101;28;20008;-84
2022/10/24 08:53:09;;;;;;;1.20;0.80;;;;;;;27.04;23.17;100599.78;4958330;28;20080;-84
2022/10/24 08:55:48;;;;;;;1.95;0.80;;;;;;;27.07;23.23;100606.63;4979253;28;20486;-84
2022/10/24 08:58:33;;;;;;;0.85;0.63;;;;;;;27.11;23.22;100605.75;4933586;28;20089;-84
2022/10/24 09:01:00;;;;;;;2.63;0.82;;;;;;;27.06;23.31;100602.25;4972722;28;20166;-84
2022/10/24 09:03:38;;;;;;;1.15;0.60;;;;;;;27.07;23.38;100601.16;4967614;28;20113;-84
2022/10/24 09:06:18;;;;;;;1.23;0.60;;;;;;;27.01;23.63;100599.56;4969594;28;20034;-84
2022/10/24 09:08:57;;;;;;;1.20;0.73;;;;;;;26.87;23.54;100585.75;4951956;28;20048;-84
2022/10/24 09:11:41;;;;;;;0.98;0.77;;;;;;;26.92;23.73;100611.19;4953076;28;20348;-84
2022/10/24 09:14:18;;;;;;;1.13;0.70;;;;;;;26.87;23.72;100610.41;4974866;28;20046;-84
2022/10/24 09:16:44;;;;;;;1.25;0.70;;;;;;;26.88;23.70;100612.88;4963250;28;20358;-84
2022/10/24 09:19:15;;;;;;;1.23;0.80;;;;;;;26.86;23.95;100614.28;4962244;28;20042;-84
2022/10/24 09:21:41;;;;;;;0.65;0.50;;;;;;;26.83;23.88;100612.94;4973169;28;20374;-84
2022/10/24 09:24:19;;;;;;;0.95;0.80;;;;;;;26.85;24.00;100616.19;4965720;28;20038;-84
2022/10/24 09:26:44;;;;;;;0.85;0.70;;;;;;;26.84;23.96;100619.22;4964311;28;20465;-83
2022/10/24 09:29:10;;;;;;;0.88;0.65;;;;;;;26.83;24.09;100617.59;4975141;28;20113;-84
2022/10/24 09:31:36;;;;;;;0.80;0.80;;;;;;;26.81;24.06;100617.09;4960593;28;20054;-84
2022/10/24 09:34:03;;;;;;;2.47;0.80;;;;;;;26.85;24.15;100620.88;4955917;28;20151;-83
2022/10/24 09:36:29;;;;;;;0.88;0.63;;;;;;;26.75;24.21;100614.41;4967274;28;20171;-84
2022/10/24 09:38:54;;;;;;;0.75;0.68;;;;;;;26.77;24.29;100614.91;4948593;28;20126;-84
2022/10/24 09:41:27;;;;;;;1.27;0.60;;;;;;;26.74;24.23;100617.44;4968376;28;20035;-83
2022/10/24 09:43:55;;;;;;;0.70;0.70;;;;;;;26.72;24.38;100620.47;4972220;28;20073;-84
2022/10/24 09:46:23;;;;;;;0.98;0.68;;;;;;;26.66;24.44;100610.63;4968667;28;20031;-84
2022/10/24 09:48:54;;;;;;;0.90;0.80;;;;;;;26.67;24.52;100617.78;4948147;28;20030;-84
2022/10/24 09:51:24;;;;;;;2.25;0.80;;;;;;;26.61;24.43;100618.88;4957960;28;20368;-84
2022/10/24 09:54:06;;;;;;;1.05;0.73;;;;;;;26.62;24.63;100620.56;4975528;28;20026;-84
2022/10/24 09:56:36;;;;;;;0.85;0.70;;;;;;;26.49;24.69;100612.97;4980811;28;20037;-84
2022/10/24 09:59:27;;;;;;;0.85;0.75;;;;;;;26.54;24.98;100618.41;4967970;28;20152;-84
2022/10/24 10:01:52;;;;;;;1.05;0.70;;;;;;;26.52;24.92;100617.88;4987616;28;20038;-84
2022/10/24 10:04:18;;;;;;;2.15;0.60;;;;;;;26.50;25.05;100622.84;4967949;28;20603;-84
2022/10/24 10:06:45;;;;;;;0.60;0.60;;;;;;;26.49;25.06;100626.69;4982249;28;20022;-84
2022/10/24 10:09:13;;;;;;;1.40;0.70;;;;;;;26.42;25.21;100624.28;4956589;28;20430;-84
2022/10/24 10:11:39;;;;;;;1.13;0.60;;;;;;;26.38;25.25;100625.97;4969442;28;20480;-83
2022/10/24 10:14:04;;;;;;;0.68;0.68;;;;;;;26.34;25.18;100617.50;4965528;28;20026;-84
2022/10/24 10:16:32;;;;;;;0.68;0.68;;;;;;;26.28;25.46;100626.88;4929431;28;20038;-84
2022/10/24 10:19:07;;;;;;;0.68;0.60;;;;;;;26.26;25.52;100628.28;4977685;28;20558;-84
2022/10/24 10:22:01;;;;;;;1.13;0.80;;;;;;;26.25;25.53;100630.19;4972263;28;20472;-84
2022/10/24 10:24:34;;;;;;;3.50;0.75;;;;;;;26.24;25.44;100628.56;4976352;28;20049;-84
2022/10/24 10:27:00;;;;;;;0.80;0.63;;;;;;;26.14;25.71;100614.94;4968270;28;20035;-84
2022/10/24 10:29:25;;;;;;;0.63;0.55;;;;;;;26.14;25.63;100626.72;4958858;28;20026;-84
2022/10/24 10:34:41;;;;;;;1.27;0.65;;;;;;;25.86;25.68;100590.75;4999452;28;20061;-95
2022/10/24 10:37:22;;;;;;;1.17;0.70;;;;;;;26.09;25.85;100628.69;4963673;28;20050;-95
2022/10/24 10:40:06;;;;;;;0.70;0.55;;;;;;;26.05;25.88;100639.38;5017153;23;20501;-85
2022/10/24 10:43:12;;;;;;;1.10;0.55;;;;;;;25.88;25.96;100612.38;4985171;28;20061;-84
2022/10/24 10:45:45;;;;;;;0.75;0.65;;;;;;;25.98;25.82;100633.41;4950698;28;20030;-84
2022/10/24 10:48:37;;;;;;;0.77;0.70;;;;;;;25.96;25.96;100624.69;4976358;28;20037;-84
2022/10/24 10:51:21;;;;;;;1.13;0.60;;;;;;;25.97;25.84;100632.59;4987319;28;20176;-84
2022/10/24 10:53:46;;;;;;;0.77;0.60;;;;;;;25.96;26.08;100630.97;4976790;28;20109;-84
2022/10/24 10:56:24;;;;;;;1.27;0.77;;;;;;;25.98;26.10;100639.72;4988447;28;20118;-84
2022/10/24 10:59:10;;;;;;;0.88;0.80;;;;;;;25.92;26.00;100632.59;4986370;28;20427;-83
2022/10/24 11:01:47;;;;;;;0.73;0.60;;;;;;;25.84;26.05;100616.78;4987294;28;20030;-83
2022/10/24 11:04:39;;;;;;;1.27;0.65;;;;;;;25.88;26.13;100630.72;4970006;28;20033;-84
2022/10/24 11:07:23;;;;;;;0.65;0.57;;;;;;;25.83;26.02;100623.34;4969583;28;20553;-83
2022/10/24 11:09:50;;;;;;;1.13;0.50;;;;;;;25.83;26.04;100621.44;4988581;28;20042;-83
2022/10/24 11:12:19;;;;;;;0.88;0.73;;;;;;;25.85;25.92;100618.41;4969844;28;20033;-83
2022/10/24 11:14:46;;;;;;;0.73;0.50;;;;;;;25.81;26.22;100617.34;4987814;28;20110;-83
2022/10/24 11:18:04;;;;;;;0.95;0.60;;;;;;;25.77;26.08;100611.63;4969718;28;20038;-83
2022/10/24 11:20:39;;;;;;;1.13;0.75;;;;;;;25.71;26.12;100612.75;4940364;28;20042;-83
2022/10/24 11:23:28;;;;;;;0.73;0.55;;;;;;;25.70;26.23;100607.56;4971920;28;20109;-83
2022/10/24 11:26:02;;;;;;;0.40;0.40;;;;;;;25.63;26.51;100610.59;4986687;28;20042;-83
2022/10/24 11:29:07;;;;;;;0.70;0.60;;;;;;;25.63;26.52;100605.97;4953533;28;20098;-83
2022/10/24 11:31:37;;;;;;;1.55;0.77;;;;;;;25.62;26.52;100609.78;4969392;28;20031;-83
2022/10/24 11:34:09;;;;;;;0.93;0.65;;;;;;;25.62;26.69;100604.31;4987377;28;20018;-83
2022/10/24 11:37:02;;;;;;;1.40;0.70;;;;;;;25.62;26.71;100615.28;4988102;28;20513;-83